Nearby METAR Reports

 

YSCB - Canberra (civ/Mi, Australia
Distance from station: NNE 21km
Updated: 21/01/2019 02:30
Overcast
Overcast
 Wind from ESE
Wind: ESE 2 km/h
Temperature: 19°C
Dew Point: 15°C
Humidity: 78%
Barometer: 1021 hPa
Clouds: Overcast
Visibility: 10 km
Cloud details: Partly cloudy 792 m
Overcast 1554 m
2019/01/20 15:30 YSCB 201530Z AUTO 12001KT 9999 // SCT026 OVC051 19/15 Q1021
YCOM - Cooma Snowy Mtns, Australia
Distance from station: S 94km
Updated: 21/01/2019 02:00
Clear
Clear
 Wind from NE
Wind: NE 9 km/h
Temperature: 13°C
Dew Point: 12°C
Humidity: 94%
Barometer: 1023 hPa
Clouds: Clear
Visibility: 10 km
2019/01/20 15:00 YCOM 201500Z AUTO 04005KT 9999 // NCD 13/12 Q1023
 
YSNW - Nowra (aus-Navy), Australia
Distance from station: ENE 140km
Updated: 21/01/2019 02:30
Overcast
Overcast
 Wind from calm
Wind: Calm
Temperature: 21°C
Dew Point: 21°C
Humidity: 100%
Barometer: 1019 hPa
Clouds: Overcast
Visibility: 10 km
Cloud details: Overcast 518 m
2019/01/20 15:30 YSNW 201530Z AUTO 00000KT 9999 // OVC017 21/21 Q1019
YSWG - Wagga Wagga(Cv/M, Australia
Distance from station: WNW 153km
Updated: 21/01/2019 02:00
Clear
Clear
 Wind from ENE
Wind: ENE 31 km/h
Temperature: 26°C
Dew Point: 17°C
Humidity: 58%
Barometer: 1015 hPa
Clouds: Clear
Visibility: 10 km
2019/01/20 15:00 YSWG 201500Z AUTO 07017KT 9999 // NCD 26/17 Q1015
 
YMER - Merimbula Arpt, Australia
Distance from station: SSE 177km
Updated: 21/01/2019 02:00
Mostly cloudy
Mostly cloudy
 Wind from calm
Wind: Calm
Temperature: 18°C
Dew Point: 17°C
Humidity: 94%
Barometer: 1020 hPa
Clouds: Mostly cloudy
Visibility: 10 km
Cloud details: Mostly cloudy 884 m
2019/01/20 15:00 YMER 201500Z AUTO 00000KT 9999 // BKN029 18/17 Q1020
YMAY - Albury Airport, Australia
Distance from station: WSW 207km
Updated: 21/01/2019 02:00
Clear
Clear
 Wind from SE
Wind: SE 19 km/h
Temperature: 27°C
Dew Point: 11°C
Humidity: 37%
Barometer: 1015 hPa
Clouds: Clear
Visibility: 10 km
2019/01/20 15:00 YMAY 201500Z AUTO 13010KT 9999 // NCD 27/11 Q1015
 
YNAR - Narrandera, Australia
Distance from station: WNW 250km
Updated: 21/01/2019 02:00

 Wind from calm
Wind: Calm
Temperature: 19°C
Dew Point: 6°C
Humidity: 43%
Barometer: 1014 hPa
2019/01/20 15:00 YNAR 201500Z AUTO 00000KT //// // ////// 19/06 Q1014
YSSY - Sydney Intl Airp, Australia
Distance from station: NE 253km
Updated: 21/01/2019 02:30
Nearby showers, Overcast
Nearby showers, Overcast
 Wind from WNW
Wind: WNW 6 km/h
Temperature: 24°C
Dew Point: 20°C
Humidity: 78%
Barometer: 1019 hPa
Summary: Nearby Showers
Clouds: Overcast
Visibility: 10 km
Cloud details: Partly cloudy 762 m
Overcast 914 m
2019/01/20 15:30 YSSY 201530Z 30003KT 9999 VCSH SCT025 OVC030 24/20 Q1019 INTER 1600/1830 5000 TSRA BKN010 FEW025CB
 
YSRI - Richmond (aus-Af, Australia
Distance from station: NE 257km
Updated: 21/01/2019 02:38
Mostly cloudy
Mostly cloudy
 Wind from WSW
Wind: WSW 15 km/h
Temperature: 22°C
Dew Point: 21°C
Humidity: 94%
Barometer: 1020 hPa
Clouds: Mostly cloudy
Cloud details: Partly cloudy 61 m
Partly cloudy 213 m
Mostly cloudy 610 m
2019/01/20 15:38 YSRI 201538Z AUTO 25008KT //// // SCT002 SCT007 BKN020 22/21 Q1020
YWGT - Wangaratta Arp, Australia
Distance from station: WSW 274km
Updated: 21/01/2019 02:00
Clear
Clear
 Wind from SSE
Wind: SSE 11 km/h
Temperature: 24°C
Dew Point: 11°C
Humidity: 44%
Barometer: 1014 hPa
Clouds: Clear
Visibility: 10 km
2019/01/20 15:00 YWGT 201500Z AUTO 16006KT 9999 // NCD 24/11 Q1014
 
YGTH - Griffith Arpt, Australia
Distance from station: WNW 308km
Updated: 21/01/2019 02:00
Clear
Clear
 Wind from SW
Wind: SW 13 km/h
Temperature: 23°C
Dew Point: 5°C
Humidity: 31%
Barometer: 1013 hPa
Clouds: Clear
Visibility: 10 km
2019/01/20 15:00 YGTH 201500Z AUTO 22007KT 9999 // NCD 23/05 Q1013